Briefing drone pour Loriol-sur-drome

Rechercher une autre localisation

Conditions de vol :


Nous sommes le : Dimanche 11 avril 2021
Il est 12:52 UTC (14:52 LT)

Lever de soleil : 04:36 UTC (06:36 LT)
Coucher de soleil : 18:47 UTC (20:47 LT)

Météo

L'essentiel des conditions de vol

VIGILANCE MÉTÉO FRANCE - Drôme (26)
Vigilance Jaune : Orages / Pluie-inondation
CARTES DES FRONTS
METAR de LFLU
LFLU 111230Z AUTO 20019KT 9999 OVC056 15/08 Q1012

Date d'émission: 11/04/2021
Heure d'émission: 12:30 UTC
Vent: 200° pour 19 KT (35 km/h)
Visibilité horizontale: > 10 km
Plafond :
- Couvert à 5600ft (1707m)
Température: 15 °C
Point de rosée: 8 °C
Humidité: 63%
Pression (QNH): 1012 hPa
Prévision 24h pour Valence (13 km)
Vent : 4° pour 10 KT (37 km/h)
Temperature Maxi: 7 °C
Temperature Min: 7 °C
Humidité : 74%
Condition : Légère pluie



Warning: count(): Parameter must be an array or an object that implements Countable in /homepages/6/d509196549/htdocs/droneoxygene/briefing.php on line 743
WEBCAM POUR LORIOL-SUR-DROME

Réglementation

Voler en sécurité

CARTES AERONAUTIQUE 1/500.000
CARTES VAC (LFLU)
SUP AIP




Chargement des AIP...
NOTAM (LORIOL-SUR-DROME + Terrain à proximité / FIR )




Chargement des NOTAMS...
CONTACT PREFECTURE 26
Drôme (26) : ddt-sdsr@drome.gouv.fr


Avertissement : Les données mises à disposition sont indicatives. Oxygène Drone ne pourra être tenu responsable de dégâts causés aux biens et aux personnes.